Eilat, Israel

3:50 PM IDT on September 04, 2015 (GMT +0300)
Aqaba International | | Change Station
CLOSE
Current Station
Airport
Location: Aqaba,
Elevation: 174 ft
Nearby Weather Stations

Elev 174 ft 29.61 °N, 35.02 °E | Updated 50 minutes ago

Clear
Clear
100 °F
Feels Like 100 °F
N
14
Wind Variable Wind from North

Today
High -- | Low -- °F
--% Chance of Precip.
Yesterday
High -- | Low -- °F
Precip. -- in
6:18 AM 6:59 PM
Waning Gibbous, 60% visible
Pressure 29.74 in
Visibility -9999.0 miles
Clouds
Heat Index 100 °F
Dew Point 59 °F
Humidity 25%
Rainfall 0.00 in
Snow Depth Not available.
UV Not available.
Pollen Not available.
Air Quality Not available.
Flu Activity Not available.
METAR OJAQ 041200Z 36012KT CAVOK 38/15 Q1007 NOSIG
Pressure 29.74 in
Visibility -9999.0 miles
Clouds
Heat Index 100 °F
Dew Point 59 °F
Humidity 25%
Rainfall 0.00 in
Snow Depth Not available.
UV Not available.
Pollen Not available.
Air Quality Not available.
Flu Activity Not available.
METAR OJAQ 041200Z 36012KT CAVOK 38/15 Q1007 NOSIG

10-Day Weather Forecast

×

Almanac

Astronomy

Sep. 04, 2015 Rise Set
Actual Time
Civil Twilight
Nautical Twilight
Astronomical Twilight
Moon
Length of Visible Light
Length of Day
Tomorrow will be .
, % of the Moon is Illuminated

Today's Extremes

Country Highs Country Lows

Community

WunderPhotos

Upload Photos

1,852,174 photos uploaded!

WunderBlogs® & News

Nearby

Air Quality

  Air Quality AQ Index Pollutant
Not available.

Snow Depth

Station Depth Elevation

Earthquake Activity

City Distance Mag. Time & Date
Minimum magnitude displayed is 2.5.

Coastal Water Temperatures

Place Temperature

Stations

Nearby Weather Stations

Station Location Temp. Windchill Dew Point Humidity Wind Precip. Elev Updated Type